Latest Coastal Weather Observations for Lihou Reef Lighthouse

IDQ60701

Issued at 1:13 pm EST Tuesday 30 August 2016 (issued every 10 minutes, with the page automatically refreshed every 10 minutes)

About coastal observations | Map of coastal stations | Coastal observations for QLD | Marine services | Other Formats
Station Details ID: 200880 Name: LIHOU REEF LIGHTHOUSE Lat: -17.13 Lon: 152.15 Height: 0.0 m
Data from the previous 72 hours. | See also: Recent months at Lihou Reef Lighthouse
Date/Time
EST
Temp
°C
Wind Pressure Rain since
9am
mm
Weather Cloud Vis
km
Sea
Height
m
Swell
Dir  Spd
kts
Gust
kts
hPa Trend Height
m
Period
s
Dir
30/01:00pm 24.2 SE 22 26 1018.8 - - - - - - - - -
30/12:30pm 24.3 SE 20 23 1019.2 - - - - - - - - -
30/12:00pm 24.1 SE 21 24 1019.5 - - - - - - - - -
30/11:30am 24.3 SE 21 26 1019.8 - - - - - - - - -
30/11:00am 24.3 SE 20 23 1020.3 - - - - - - - - -
30/10:30am 24.5 SE 20 23 1020.4 - - - - - - - - -
30/10:00am 24.4 SE 19 23 1020.6 - - - - - - - - -
30/09:30am 24.1 SE 20 26 1020.8 - - - - - - - - -
30/09:00am 24.0 SE 19 24 1020.9 - - - - - - - - -
30/08:30am 23.7 SE 16 20 1020.7 - - - - - - - - -
30/08:00am 22.5 ESE 17 21 1020.5 - - - - - - - - -
30/07:44am 23.5 SE 18 29 1020.2 - - - - - - - - -
30/07:30am 23.6 SE 18 21 1020.0 - - - - - - - - -
30/07:00am 23.5 ESE 19 23 1019.7 - - - - - - - - -
30/06:30am 24.1 ESE 17 23 1019.2 - - - - - - - - -
30/06:00am 23.3 ESE 17 19 1019.0 - - - - - - - - -
30/05:30am 23.6 ESE 21 24 1018.5 - - - - - - - - -
30/05:00am 24.1 ESE 18 23 1018.2 - - - - - - - - -
30/04:30am 23.9 ESE 22 27 1017.9 - - - - - - - - -
30/04:00am 23.9 SE 21 27 1017.6 - - - - - - - - -
30/03:30am 23.6 SE 20 25 1017.4 - - - - - - - - -
30/03:00am 23.8 SE 21 26 1017.5 - - - - - - - - -
30/02:30am 23.8 SE 20 25 1017.7 - - - - - - - - -
30/02:00am 23.4 ESE 20 25 1018.1 - - - - - - - - -
30/01:30am 23.7 SE 22 27 1018.3 - - - - - - - - -
30/01:00am 23.8 ESE 21 26 1018.6 - - - - - - - - -
30/12:30am 23.9 SE 22 26 1018.8 - - - - - - - - -
30/12:00am 23.9 SE 23 28 1018.8 - - - - - - - - -
 
Date/Time
EST
Temp
°C
Wind Pressure Rain since
9am
mm
Weather Cloud Vis
km
Sea
Height
m
Swell
Dir  Spd
kts
Gust
kts
hPa Trend Height
m
Period
s
Dir
29/11:30pm 23.5 SE 20 24 1019.2 - - - - - - - - -
29/11:00pm 23.2 SE 21 30 1019.2 - - - - - - - - -
29/10:30pm 24.1 SE 21 27 1019.6 - - - - - - - - -
29/10:00pm 23.7 SE 22 27 1019.5 - - - - - - - - -
29/09:30pm 23.8 SE 21 26 1019.5 - - - - - - - - -
29/09:00pm 23.6 SE 23 27 1019.5 - - - - - - - - -
29/08:30pm 23.8 SE 22 26 1019.4 - - - - - - - - -
29/08:00pm 23.7 SE 21 26 1019.1 - - - - - - - - -
29/07:30pm 23.5 SE 20 28 1018.9 - - - - - - - - -
29/07:00pm 23.6 SE 18 22 1018.7 - - - - - - - - -
29/06:30pm 23.7 SE 19 23 1018.5 - - - - - - - - -
29/06:00pm 23.6 SE 20 23 1018.2 - - - - - - - - -
29/05:30pm 23.8 SE 18 23 1018.2 - - - - - - - - -
29/05:00pm 23.7 SE 20 25 1017.9 - - - - - - - - -
29/04:30pm 23.8 SE 20 23 1017.7 - - - - - - - - -
29/04:00pm 23.5 SE 20 24 1017.4 - - - - - - - - -
29/03:30pm 23.5 SE 19 23 1017.2 - - - - - - - - -
29/03:00pm 23.6 SE 19 22 1017.2 - - - - - - - - -
29/02:30pm 23.6 SE 19 22 1017.5 - - - - - - - - -
29/02:00pm 23.6 SE 18 23 1017.5 - - - - - - - - -
29/01:30pm 23.6 SE 19 24 1017.8 - - - - - - - - -
29/01:00pm 23.4 SE 19 24 1018.1 - - - - - - - - -
29/12:30pm 23.6 SE 20 24 1018.4 - - - - - - - - -
29/12:00pm 23.5 SE 19 22 1018.9 - - - - - - - - -
29/11:30am 23.5 SE 20 24 1019.3 - - - - - - - - -
29/11:00am 23.4 SE 20 23 1019.6 - - - - - - - - -
29/10:30am 23.5 SE 19 23 1019.8 - - - - - - - - -
29/10:00am 23.3 SE 19 23 1020.1 - - - - - - - - -
29/09:30am 23.4 SE 19 22 1020.3 - - - - - - - - -
29/09:00am 23.5 SE 19 23 1020.2 - - - - - - - - -
29/08:30am 23.3 SE 19 23 1020.0 - - - - - - - - -
29/08:00am 23.2 SE 19 23 1019.8 - - - - - - - - -
29/07:30am 23.2 SE 18 23 1019.4 - - - - - - - - -
29/07:00am 23.2 SE 20 25 1018.9 - - - - - - - - -
29/06:30am 22.9 SE 19 23 1018.7 - - - - - - - - -
29/06:00am 22.7 SSE 18 21 1018.5 - - - - - - - - -
29/05:30am 22.8 SE 19 21 1018.1 - - - - - - - - -
29/05:00am 22.7 SE 17 22 1017.7 - - - - - - - - -
29/04:30am 22.6 SE 16 20 1017.5 - - - - - - - - -
29/04:00am 22.8 SE 18 22 1017.5 - - - - - - - - -
29/03:30am 22.8 SE 16 19 1017.6 - - - - - - - - -
29/03:00am 22.7 SE 17 21 1017.6 - - - - - - - - -
29/02:30am 22.6 SE 19 23 1017.7 - - - - - - - - -
29/02:00am 22.6 SE 17 21 1017.9 - - - - - - - - -
29/01:30am 22.9 SE 17 21 1018.1 - - - - - - - - -
29/01:00am 22.6 SE 20 24 1018.1 - - - - - - - - -
29/12:30am 22.6 SE 19 23 1018.3 - - - - - - - - -
29/12:00am 22.6 SE 20 24 1018.4 - - - - - - - - -
 
Date/Time
EST
Temp
°C
Wind Pressure Rain since
9am
mm
Weather Cloud Vis
km
Sea
Height
m
Swell
Dir  Spd
kts
Gust
kts
hPa Trend Height
m
Period
s
Dir
28/11:30pm 22.7 SE 19 23 1018.7 - - - - - - - - -
28/11:00pm 22.6 SSE 19 25 1018.8 - - - - - - - - -
28/10:30pm 22.7 SE 19 24 1018.8 - - - - - - - - -
28/10:00pm 22.6 SE 19 24 1018.6 - - - - - - - - -
28/09:30pm 22.6 SE 19 24 1018.9 - - - - - - - - -
28/09:00pm 22.5 SE 19 24 1018.8 - - - - - - - - -
28/08:30pm 22.4 SE 20 24 1018.7 - - - - - - - - -
28/08:00pm 22.5 SE 20 24 1018.5 - - - - - - - - -
28/07:30pm 22.5 SSE 20 25 1018.2 - - - - - - - - -
28/07:00pm 22.3 SSE 20 23 1018.0 - - - - - - - - -
28/06:30pm 22.4 SE 20 26 1017.8 - - - - - - - - -
28/06:00pm 22.3 SE 20 23 1017.4 - - - - - - - - -
28/05:30pm 22.2 SE 18 22 1017.4 - - - - - - - - -
28/05:00pm 22.2 SSE 19 23 1017.2 - - - - - - - - -
28/04:30pm 22.1 SSE 17 21 1017.3 - - - - - - - - -
28/04:00pm 22.3 SSE 18 21 1017.1 - - - - - - - - -
28/03:30pm 22.0 SSE 16 21 1017.1 - - - - - - - - -
28/03:00pm 22.1 SSE 16 20 1017.0 - - - - - - - - -
28/02:30pm 21.9 SSE 17 20 1017.2 - - - - - - - - -
28/02:00pm 22.0 SSE 16 20 1017.6 - - - - - - - - -
28/01:30pm 21.8 SSE 16 19 1018.0 - - - - - - - - -
28/01:00pm 21.8 SSE 16 19 1018.2 - - - - - - - - -
28/12:30pm 21.6 SSE 16 19 1018.7 - - - - - - - - -
28/12:00pm 21.6 SSE 17 20 1018.9 - - - - - - - - -
28/11:30am 21.4 SSE 17 21 1019.3 - - - - - - - - -
28/11:00am 21.6 SSE 18 22 1019.7 - - - - - - - - -
28/10:30am 21.6 S 18 22 1020.0 - - - - - - - - -
28/10:00am 21.6 S 18 21 1020.2 - - - - - - - - -
28/09:30am 21.7 S 18 22 1020.5 - - - - - - - - -
28/09:00am 21.6 S 18 23 1020.5 - - - - - - - - -
28/08:30am 21.8 SSE 17 21 1020.4 - - - - - - - - -
28/08:00am 22.0 SSE 17 20 1020.3 - - - - - - - - -
28/07:30am 22.0 S 19 24 1020.0 - - - - - - - - -
28/07:00am 22.0 S 18 23 1019.8 - - - - - - - - -
28/06:30am 21.6 S 19 22 1019.3 - - - - - - - - -
28/06:00am 21.8 S 19 23 1018.7 - - - - - - - - -
28/05:30am 21.9 S 18 23 1018.3 - - - - - - - - -
28/05:00am 21.8 S 18 21 1018.2 - - - - - - - - -
28/04:30am 21.9 S 15 19 1018.0 - - - - - - - - -
28/04:00am 22.0 SSE 14 17 1018.1 - - - - - - - - -
28/03:30am 22.0 S 14 17 1018.0 - - - - - - - - -
28/03:00am 22.1 SSE 12 16 1018.2 - - - - - - - - -
28/02:30am 22.1 S 13 16 1018.4 - - - - - - - - -
28/02:00am 22.3 SSE 14 18 1018.3 - - - - - - - - -
28/01:30am 22.0 SSE 15 19 1018.4 - - - - - - - - -
28/01:00am 22.2 SSE 16 20 1018.5 - - - - - - - - -
28/12:30am 22.1 S 19 22 1018.3 - - - - - - - - -
28/12:00am 22.3 SSE 19 22 1018.5 - - - - - - - - -
 
Date/Time
EST
Temp
°C
Wind Pressure Rain since
9am
mm
Weather Cloud Vis
km
Sea
Height
m
Swell
Dir  Spd
kts
Gust
kts
hPa Trend Height
m
Period
s
Dir
27/11:30pm 22.3 S 20 23 1018.6 - - - - - - - - -
27/11:00pm 22.8 S 20 24 1018.6 - - - - - - - - -
27/10:30pm 22.9 S 20 23 1018.7 - - - - - - - - -
27/10:00pm 22.9 SSE 18 22 1018.9 - - - - - - - - -
27/09:30pm 22.7 SSE 18 23 1018.7 - - - - - - - - -
27/09:00pm 22.7 SSE 18 22 1018.6 - - - - - - - - -
27/08:30pm 22.7 SSE 20 23 1018.5 - - - - - - - - -
27/08:00pm 22.8 SSE 18 21 1018.6 - - - - - - - - -
27/07:30pm 22.8 SSE 19 23 1018.3 - - - - - - - - -
27/07:00pm 22.8 SSE 19 22 1018.1 - - - - - - - - -
27/06:30pm 22.9 SSE 19 22 1017.6 - - - - - - - - -
27/06:00pm 22.6 SSE 20 23 1017.3 - - - - - - - - -
27/05:30pm 23.3 SSE 19 23 1017.2 - - - - - - - - -
27/05:00pm 22.9 SSE 19 22 1016.6 - - - - - - - - -
27/04:30pm 22.9 S 19 23 1016.4 - - - - - - - - -
27/04:00pm 23.1 S 19 23 1016.1 - - - - - - - - -
27/03:30pm 22.9 S 19 23 1015.9 - - - - - - - - -
27/03:00pm 22.9 S 21 23 1015.7 - - - - - - - - -
27/02:30pm 23.1 S 21 26 1015.7 - - - - - - - - -
27/02:00pm 23.2 S 22 26 1015.8 - - - - - - - - -
27/01:30pm 23.1 S 21 24 1016.2 - - - - - - - - -

Other Formats:

Comma delimited format used in spreadsheet applications
http://www.bom.gov.au/fwo/IDQ60701/IDQ60701.94293.axf

JavaScript Object Notation format (JSON) in row-major order
http://www.bom.gov.au/fwo/IDQ60701/IDQ60701.94293.json